Time;durP1;ratioP1;P1;durP2;ratioP2;P2;SDS_P1;SDS_P2;PMS_P1;PMS_P2;Temp;Humidity;BMP_temperature;BMP_pressure;BME280_temperature;BME280_humidity;BME280_pressure;Samples;Min_cycle;Max_cycle;Signal;HPM_P1;HPM_P2
2023/07/08 00:01:47;;;;;;;;;;;;;;;;;;4988535;28;19975;-88
2023/07/08 00:04:13;;;;;;;;;;;;;;;;;;5003576;28;19921;-86
2023/07/08 00:06:39;;;;;;;;;;;;;;;;;;4987414;28;20016;-87
2023/07/08 00:09:05;;;;;;;;;;;;;;;;;;4987889;28;19929;-87
2023/07/08 00:11:31;;;;;;;;;;;;;;;;;;4988526;28;19921;-89
2023/07/08 00:13:57;;;;;;;;;;;;;;;;;;4987211;28;20013;-87
2023/07/08 00:16:23;;;;;;;;;;;;;;;;;;4986776;28;19921;-86
2023/07/08 00:18:49;;;;;;;;;;;;;;;;;;4986418;28;20008;-84
2023/07/08 00:21:15;;;;;;;;;;;;;;;;;;5004217;28;19921;-88
2023/07/08 00:23:41;;;;;;;;;;;;;;;;;;4987120;28;19975;-87
2023/07/08 00:26:07;;;;;;;;;;;;;;;;;;4987649;28;20414;-88
2023/07/08 00:28:33;;;;;;;;;;;;;;;;;;4987791;28;20016;-87
2023/07/08 00:30:59;;;;;;;;;;;;;;;;;;4987362;28;19925;-87
2023/07/08 00:33:25;;;;;;;;;;;;;;;;;;4986906;28;20379;-89
2023/07/08 00:35:51;;;;;;;;;;;;;;;;;;4987908;28;19984;-87
2023/07/08 00:38:17;;;;;;;;;;;;;;;;;;4987063;28;20012;-88
2023/07/08 00:40:43;;;;;;;;;;;;;;;;;;4985717;28;19926;-87
2023/07/08 00:43:09;;;;;;;;;;;;;;;;;;4987467;28;20012;-86
2023/07/08 00:45:35;;;;;;;;;;;;;;;;;;4986559;28;19925;-86
2023/07/08 00:48:01;;;;;;;;;;;;;;;;;;4986411;28;19925;-86
2023/07/08 00:50:26;;;;;;;;;;;;;;;;;;4986017;28;20263;-87
2023/07/08 00:52:53;;;;;;;;;;;;;;;;;;5002195;28;20380;-88
2023/07/08 00:55:19;;;;;;;;;;;;;;;;;;5002296;28;19922;-83
2023/07/08 00:57:45;;;;;;;;;;;;;;;;;;4985270;28;20003;-85
2023/07/08 01:00:11;;;;;;;;;;;;;;;;;;4985650;28;19921;-85
2023/07/08 01:02:37;;;;;;;;;;;;;;;;;;4985718;28;19922;-86
2023/07/08 01:05:04;;;;;;;;;;;;;;;;;;5001745;28;19921;-86
2023/07/08 01:07:30;;;;;;;;;;;;;;;;;;5001140;28;19925;-85
2023/07/08 01:09:56;;;;;;;;;;;;;;;;;;5001562;28;19944;-87
2023/07/08 01:12:23;;;;;;;;;;;;;;;;;;4985628;28;19932;-86
2023/07/08 01:14:53;;;;;;;;;;;;;;;;;;4985527;28;19922;-86
2023/07/08 01:17:19;;;;;;;;;;;;;;;;;;4984906;28;19922;-85
2023/07/08 01:19:45;;;;;;;;;;;;;;;;;;4984271;28;19932;-86
2023/07/08 01:22:10;;;;;;;;;;;;;;;;;;4985075;28;20012;-86
2023/07/08 01:24:36;;;;;;;;;;;;;;;;;;4985327;28;19985;-88
2023/07/08 01:27:05;;;;;;;;;;;;;;;;;;4985380;28;19925;-86
2023/07/08 01:29:31;;;;;;;;;;;;;;;;;;4984378;28;19929;-87
2023/07/08 01:31:57;;;;;;;;;;;;;;;;;;4984447;28;19976;-86
2023/07/08 01:34:24;;;;;;;;;;;;;;;;;;4984872;28;19921;-84
2023/07/08 01:36:50;;;;;;;;;;;;;;;;;;4984912;28;19922;-86
2023/07/08 01:39:17;;;;;;;;;;;;;;;;;;4984612;28;20336;-85
2023/07/08 01:41:43;;;;;;;;;;;;;;;;;;4985061;28;20331;-86
2023/07/08 01:44:08;;;;;;;;;;;;;;;;;;4984796;28;19929;-87
2023/07/08 01:46:34;;;;;;;;;;;;;;;;;;4984259;28;19936;-87
2023/07/08 01:49:00;;;;;;;;;;;;;;;;;;4984781;28;19925;-87
2023/07/08 01:51:26;;;;;;;;;;;;;;;;;;4983561;28;19921;-88
2023/07/08 01:53:52;;;;;;;;;;;;;;;;;;4984314;28;19944;-86
2023/07/08 01:56:18;;;;;;;;;;;;;;;;;;4984225;28;19928;-87
2023/07/08 01:58:45;;;;;;;;;;;;;;;;;;4983748;28;19940;-86
2023/07/08 02:01:11;;;;;;;;;;;;;;;;;;5000869;28;19952;-85
2023/07/08 02:03:37;;;;;;;;;;;;;;;;;;4984140;28;19922;-87
2023/07/08 02:06:03;;;;;;;;;;;;;;;;;;5000131;28;19925;-87
2023/07/08 02:08:29;;;;;;;;;;;;;;;;;;4983940;28;19921;-86
2023/07/08 02:10:55;;;;;;;;;;;;;;;;;;4983862;28;19922;-86
2023/07/08 02:13:21;;;;;;;;;;;;;;;;;;4983890;28;19944;-84
2023/07/08 02:15:47;;;;;;;;;;;;;;;;;;4983242;28;19921;-85
2023/07/08 02:18:13;;;;;;;;;;;;;;;;;;4984569;28;19964;-85
2023/07/08 02:20:39;;;;;;;;;;;;;;;;;;4983732;28;19921;-86
2023/07/08 02:23:05;;;;;;;;;;;;;;;;;;5000216;28;19933;-87
2023/07/08 02:25:31;;;;;;;;;;;;;;;;;;5000079;28;19926;-86
2023/07/08 02:27:57;;;;;;;;;;;;;;;;;;4983749;28;20021;-86
2023/07/08 02:30:23;;;;;;;;;;;;;;;;;;4983158;28;19976;-86
2023/07/08 02:32:56;;;;;;;;;;;;;;;;;;4983754;28;19921;-87
2023/07/08 02:35:22;;;;;;;;;;;;;;;;;;4983050;28;19922;-87
2023/07/08 02:37:48;;;;;;;;;;;;;;;;;;4984120;28;19948;-86
2023/07/08 02:40:14;;;;;;;;;;;;;;;;;;4984180;28;19922;-86
2023/07/08 02:42:40;;;;;;;;;;;;;;;;;;4999617;28;19956;-86
2023/07/08 02:45:06;;;;;;;;;;;;;;;;;;4983268;28;19929;-88
2023/07/08 02:47:32;;;;;;;;;;;;;;;;;;4983510;28;19925;-85
2023/07/08 02:49:57;;;;;;;;;;;;;;;;;;4983167;28;20296;-88
2023/07/08 02:52:23;;;;;;;;;;;;;;;;;;4983640;28;20403;-85
2023/07/08 02:54:49;;;;;;;;;;;;;;;;;;4983382;28;20021;-88
2023/07/08 02:57:15;;;;;;;;;;;;;;;;;;4983433;28;19971;-87
2023/07/08 02:59:41;;;;;;;;;;;;;;;;;;4984420;28;19972;-86
2023/07/08 03:02:07;;;;;;;;;;;;;;;;;;4984133;28;19941;-86
2023/07/08 03:04:35;;;;;;;;;;;;;;;;;;4986444;28;19971;-87
2023/07/08 03:07:01;;;;;;;;;;;;;;;;;;4984496;28;19973;-87
2023/07/08 03:09:27;;;;;;;;;;;;;;;;;;4983451;28;19922;-86
2023/07/08 03:11:53;;;;;;;;;;;;;;;;;;4983610;28;19929;-86
2023/07/08 03:14:19;;;;;;;;;;;;;;;;;;4983410;28;19922;-87
2023/07/08 03:16:45;;;;;;;;;;;;;;;;;;4984429;28;20365;-87
2023/07/08 03:19:10;;;;;;;;;;;;;;;;;;4984383;28;19922;-87
2023/07/08 03:21:36;;;;;;;;;;;;;;;;;;4983806;28;19953;-89
2023/07/08 03:24:02;;;;;;;;;;;;;;;;;;4984325;28;19933;-85
2023/07/08 03:26:28;;;;;;;;;;;;;;;;;;4983933;28;19926;-87
2023/07/08 03:28:54;;;;;;;;;;;;;;;;;;4984132;28;20194;-86
2023/07/08 03:31:20;;;;;;;;;;;;;;;;;;4983497;28;20277;-85
2023/07/08 03:33:46;;;;;;;;;;;;;;;;;;4984589;28;19929;-89
2023/07/08 03:36:12;;;;;;;;;;;;;;;;;;4983990;28;20005;-87
2023/07/08 03:38:39;;;;;;;;;;;;;;;;;;4984457;28;19922;-86
2023/07/08 03:41:05;;;;;;;;;;;;;;;;;;4990631;28;19957;-88
2023/07/08 03:43:34;;;;;;;;;;;;;;;;;;5003136;28;19928;-86
2023/07/08 03:46:00;;;;;;;;;;;;;;;;;;4986466;28;19925;-85
2023/07/08 03:48:26;;;;;;;;;;;;;;;;;;4986133;28;20016;-88
2023/07/08 03:50:52;;;;;;;;;;;;;;;;;;4986611;28;20388;-88
2023/07/08 03:53:18;;;;;;;;;;;;;;;;;;4987554;28;20279;-88
2023/07/08 03:55:44;;;;;;;;;;;;;;;;;;5003279;28;20475;-87
2023/07/08 03:58:10;;;;;;;;;;;;;;;;;;4987096;28;19977;-88
2023/07/08 04:00:36;;;;;;;;;;;;;;;;;;4985968;28;19928;-88
2023/07/08 04:03:02;;;;;;;;;;;;;;;;;;4987352;28;19921;-86
2023/07/08 04:05:28;;;;;;;;;;;;;;;;;;4986379;28;19929;-87
2023/07/08 04:07:54;;;;;;;;;;;;;;;;;;4986420;28;19925;-87
2023/07/08 04:10:20;;;;;;;;;;;;;;;;;;4986729;28;19929;-88
2023/07/08 04:12:46;;;;;;;;;;;;;;;;;;5003396;28;19929;-87
2023/07/08 04:15:12;;;;;;;;;;;;;;;;;;4986807;28;19922;-88
2023/07/08 04:17:38;;;;;;;;;;;;;;;;;;4987710;28;19921;-86
2023/07/08 04:20:04;;;;;;;;;;;;;;;;;;5001935;28;20364;-86
2023/07/08 04:22:30;;;;;;;;;;;;;;;;;;4987015;28;19929;-89
2023/07/08 04:24:56;;;;;;;;;;;;;;;;;;4986580;28;19921;-87
2023/07/08 04:27:22;;;;;;;;;;;;;;;;;;4987283;28;19926;-87
2023/07/08 04:29:48;;;;;;;;;;;;;;;;;;4986686;28;20024;-89
2023/07/08 04:32:14;;;;;;;;;;;;;;;;;;4987818;28;19928;-88
2023/07/08 04:37:12;;;;;;;;;;;;;;;;;;5004326;28;19922;-88
2023/07/08 04:39:38;;;;;;;;;;;;;;;;;;5002504;28;19929;-87
2023/07/08 04:42:04;;;;;;;;;;;;;;;;;;4987444;28;19922;-86
2023/07/08 04:44:32;;;;;;;;;;;;;;;;;;4985863;28;19925;-86
2023/07/08 04:46:58;;;;;;;;;;;;;;;;;;4986997;28;19925;-87
2023/07/08 04:49:24;;;;;;;;;;;;;;;;;;4986992;28;19957;-84
2023/07/08 04:51:49;;;;;;;;;;;;;;;;;;4986519;28;20411;-87
2023/07/08 04:54:15;;;;;;;;;;;;;;;;;;5002608;28;19971;-86
2023/07/08 04:56:41;;;;;;;;;;;;;;;;;;5003548;28;20280;-89
2023/07/08 04:59:07;;;;;;;;;;;;;;;;;;4986684;28;19921;-86
2023/07/08 05:01:33;;;;;;;;;;;;;;;;;;5002551;28;19928;-88
2023/07/08 05:03:59;;;;;;;;;;;;;;;;;;4986343;28;19944;-89
2023/07/08 05:06:25;;;;;;;;;;;;;;;;;;4985875;28;19972;-88
2023/07/08 05:08:51;;;;;;;;;;;;;;;;;;4985945;28;20399;-87
2023/07/08 05:11:17;;;;;;;;;;;;;;;;;;5004422;28;20352;-88
2023/07/08 05:13:43;;;;;;;;;;;;;;;;;;5005296;28;19925;-88
2023/07/08 05:16:09;;;;;;;;;;;;;;;;;;4987355;28;19921;-88
2023/07/08 05:18:35;;;;;;;;;;;;;;;;;;5004684;28;19932;-89
2023/07/08 05:21:03;;;;;;;;;;;;;;;;;;4985922;28;20439;-88
2023/07/08 05:23:29;;;;;;;;;;;;;;;;;;4986407;28;19921;-88
2023/07/08 05:25:55;;;;;;;;;;;;;;;;;;5002827;28;19932;-87
2023/07/08 05:28:23;;;;;;;;;;;;;;;;;;4986104;28;20004;-87
2023/07/08 05:30:49;;;;;;;;;;;;;;;;;;5001757;28;20372;-86
2023/07/08 05:33:15;;;;;;;;;;;;;;;;;;4987555;28;19972;-90
2023/07/08 05:35:41;;;;;;;;;;;;;;;;;;4985463;28;20015;-87
2023/07/08 05:38:07;;;;;;;;;;;;;;;;;;4985613;28;19936;-89
2023/07/08 05:40:33;;;;;;;;;;;;;;;;;;4984837;28;19928;-86
2023/07/08 05:42:59;;;;;;;;;;;;;;;;;;5001969;28;20287;-88
2023/07/08 05:45:25;;;;;;;;;;;;;;;;;;4984949;28;19941;-86
2023/07/08 05:47:51;;;;;;;;;;;;;;;;;;5001747;28;19929;-87
2023/07/08 05:50:17;;;;;;;;;;;;;;;;;;4985849;28;20429;-87
2023/07/08 05:52:42;;;;;;;;;;;;;;;;;;4987028;28;19921;-93
2023/07/08 05:55:08;;;;;;;;;;;;;;;;;;4993343;28;20005;-92
2023/07/08 05:57:34;;;;;;;;;;;;;;;;;;4994327;28;19991;-92
2023/07/08 06:00:00;;;;;;;;;;;;;;;;;;4992642;28;19932;-93
2023/07/08 06:02:27;;;;;;;;;;;;;;;;;;4992492;28;19934;-92
2023/07/08 06:04:53;;;;;;;;;;;;;;;;;;4993241;28;19921;-92
2023/07/08 06:07:19;;;;;;;;;;;;;;;;;;5009173;28;19936;-92
2023/07/08 06:09:44;;;;;;;;;;;;;;;;;;4990823;28;19937;-93
2023/07/08 06:12:10;;;;;;;;;;;;;;;;;;4993092;28;19952;-91
2023/07/08 06:14:37;;;;;;;;;;;;;;;;;;4992811;28;19932;-92
2023/07/08 06:17:03;;;;;;;;;;;;;;;;;;4993197;28;19921;-91
2023/07/08 06:19:29;;;;;;;;;;;;;;;;;;4991780;28;19929;-87
2023/07/08 06:21:55;;;;;;;;;;;;;;;;;;4993011;28;20044;-94
2023/07/08 06:24:21;;;;;;;;;;;;;;;;;;4991973;28;20273;-92
2023/07/08 06:26:46;;;;;;;;;;;;;;;;;;4993693;28;20012;-93
2023/07/08 06:29:13;;;;;;;;;;;;;;;;;;4993220;28;20292;-92
2023/07/08 06:31:38;;;;;;;;;;;;;;;;;;5010003;28;19953;-93
2023/07/08 06:34:04;;;;;;;;;;;;;;;;;;5009318;28;19930;-92
2023/07/08 06:36:31;;;;;;;;;;;;;;;;;;4989776;28;19984;-91
2023/07/08 06:38:56;;;;;;;;;;;;;;;;;;4991495;28;19968;-92
2023/07/08 06:41:22;;;;;;;;;;;;;;;;;;4992553;28;19925;-93
2023/07/08 06:43:49;;;;;;;;;;;;;;;;;;4993987;28;19945;-90
2023/07/08 06:46:16;;;;;;;;;;;;;;;;;;5010546;28;19977;-91
2023/07/08 06:48:42;;;;;;;;;;;;;;;;;;4997004;28;19926;-94
2023/07/08 06:51:08;;;;;;;;;;;;;;;;;;4996642;28;19933;-92
2023/07/08 06:53:34;;;;;;;;;;;;;;;;;;5012894;28;19905;-92
2023/07/08 06:56:03;;;;;;;;;;;;;;;;;;5003541;28;19929;-91
2023/07/08 06:58:28;;;;;;;;;;;;;;;;;;4976270;28;19926;-90
2023/07/08 07:00:54;;;;;;;;;;;;;;;;;;4976387;28;19961;-92
2023/07/08 07:03:20;;;;;;;;;;;;;;;;;;4976945;28;19961;-92
2023/07/08 07:05:49;;;;;;;;;;;;;;;;;;4991041;28;20030;-92
2023/07/08 07:08:15;;;;;;;;;;;;;;;;;;5012852;28;19929;-93
2023/07/08 07:10:41;;;;;;;;;;;;;;;;;;4996251;28;20422;-93
2023/07/08 07:13:07;;;;;;;;;;;;;;;;;;4996359;28;19925;-91
2023/07/08 07:15:33;;;;;;;;;;;;;;;;;;4995353;28;20016;-91
2023/07/08 07:17:59;;;;;;;;;;;;;;;;;;4994643;28;19921;-93
2023/07/08 07:20:33;;;;;;;;;;;;;;;;;;4996330;28;19913;-92
2023/07/08 07:22:59;;;;;;;;;;;;;;;;;;4996302;28;19981;-93
2023/07/08 07:25:25;;;;;;;;;;;;;;;;;;4996366;28;19937;-89
2023/07/08 07:27:51;;;;;;;;;;;;;;;;;;4995301;28;19932;-93
2023/07/08 07:30:17;;;;;;;;;;;;;;;;;;5013102;28;19984;-89
2023/07/08 07:32:43;;;;;;;;;;;;;;;;;;4998054;28;19925;-93
2023/07/08 07:35:12;;;;;;;;;;;;;;;;;;4998203;28;19905;-92
2023/07/08 07:37:39;;;;;;;;;;;;;;;;;;4998932;28;19977;-92
2023/07/08 07:40:04;;;;;;;;;;;;;;;;;;4997721;28;19921;-93
2023/07/08 07:42:30;;;;;;;;;;;;;;;;;;4997207;28;19929;-90
2023/07/08 07:44:56;;;;;;;;;;;;;;;;;;4996996;28;19921;-93
2023/07/08 07:47:22;;;;;;;;;;;;;;;;;;4998904;28;19925;-94
2023/07/08 07:49:48;;;;;;;;;;;;;;;;;;4997231;28;19932;-94
2023/07/08 07:52:18;;;;;;;;;;;;;;;;;;4999183;28;20320;-92
2023/07/08 07:54:44;;;;;;;;;;;;;;;;;;4998034;28;19964;-94
2023/07/08 07:57:10;;;;;;;;;;;;;;;;;;4998952;28;19916;-93
2023/07/08 07:59:38;;;;;;;;;;;;;;;;;;4996556;28;19951;-90
2023/07/08 08:02:16;;;;;;;;;;;;;;;;;;5011510;28;19912;-90
2023/07/08 08:04:42;;;;;;;;;;;;;;;;;;5006564;28;19906;-93
2023/07/08 08:07:09;;;;;;;;;;;;;;;;;;4998708;28;19949;-92
2023/07/08 08:09:36;;;;;;;;;;;;;;;;;;5013401;28;19925;-90
2023/07/08 08:12:02;;;;;;;;;;;;;;;;;;4997874;28;19922;-93
2023/07/08 08:14:28;;;;;;;;;;;;;;;;;;4996907;28;19981;-94
2023/07/08 08:16:54;;;;;;;;;;;;;;;;;;5011543;28;19949;-92
2023/07/08 08:19:20;;;;;;;;;;;;;;;;;;5012174;28;19925;-92
2023/07/08 08:21:46;;;;;;;;;;;;;;;;;;4995435;28;19905;-92
2023/07/08 08:24:12;;;;;;;;;;;;;;;;;;4993921;28;19986;-94
2023/07/08 08:26:38;;;;;;;;;;;;;;;;;;4992137;28;19937;-92
2023/07/08 08:29:04;;;;;;;;;;;;;;;;;;4991499;28;20403;-90
2023/07/08 08:31:40;;;;;;;;;;;;;;;;;;4994364;28;19936;-92
2023/07/08 08:34:06;;;;;;;;;;;;;;;;;;4995712;28;20332;-94
2023/07/08 08:36:32;;;;;;;;;;;;;;;;;;4998472;28;19960;-93
2023/07/08 08:38:58;;;;;;;;;;;;;;;;;;4998758;28;19913;-94
2023/07/08 08:41:24;;;;;;;;;;;;;;;;;;4997341;28;19922;-91
2023/07/08 08:43:50;;;;;;;;;;;;;;;;;;4996737;28;19926;-95
2023/07/08 08:46:16;;;;;;;;;;;;;;;;;;4995283;28;19913;-91
2023/07/08 08:48:43;;;;;;;;;;;;;;;;;;4996485;28;19989;-92
2023/07/08 08:51:09;;;;;;;;;;;;;;;;;;4994136;28;19972;-89
2023/07/08 08:53:35;;;;;;;;;;;;;;;;;;5012512;28;20474;-91
2023/07/08 08:56:02;;;;;;;;;;;;;;;;;;4996425;28;19977;-91
2023/07/08 08:58:30;;;;;;;;;;;;;;;;;;4995147;28;19948;-91
2023/07/08 09:00:56;;;;;;;;;;;;;;;;;;5010248;28;19929;-93
2023/07/08 09:03:22;;;;;;;;;;;;;;;;;;4994454;28;19928;-91
2023/07/08 09:05:48;;;;;;;;;;;;;;;;;;4993865;28;19976;-92
2023/07/08 09:08:14;;;;;;;;;;;;;;;;;;4994044;28;19926;-92
2023/07/08 09:10:39;;;;;;;;;;;;;;;;;;4993202;28;19921;-94
2023/07/08 09:13:05;;;;;;;;;;;;;;;;;;4994066;28;19929;-90
2023/07/08 09:15:31;;;;;;;;;;;;;;;;;;4990900;28;19944;-89
2023/07/08 09:17:57;;;;;;;;;;;;;;;;;;5009431;28;19967;-91
2023/07/08 09:20:23;;;;;;;;;;;;;;;;;;4993863;28;19922;-93
2023/07/08 09:22:49;;;;;;;;;;;;;;;;;;4992953;28;20265;-92
2023/07/08 09:25:15;;;;;;;;;;;;;;;;;;5006307;28;19985;-93
2023/07/08 09:27:42;;;;;;;;;;;;;;;;;;4979254;28;20377;-90
2023/07/08 09:30:08;;;;;;;;;;;;;;;;;;4982778;28;19961;-85
2023/07/08 09:32:34;;;;;;;;;;;;;;;;;;4987561;28;19926;-91
2023/07/08 09:35:00;;;;;;;;;;;;;;;;;;5008223;28;19921;-91
2023/07/08 09:37:30;;;;;;;;;;;;;;;;;;4991901;28;19937;-90
2023/07/08 09:39:56;;;;;;;;;;;;;;;;;;4991254;28;19948;-93
2023/07/08 09:42:22;;;;;;;;;;;;;;;;;;4994102;28;19906;-90
2023/07/08 09:47:17;;;;;;;;;;;;;;;;;;5009054;28;19926;-92
2023/07/08 09:49:43;;;;;;;;;;;;;;;;;;5008610;28;20446;-92
2023/07/08 09:52:09;;;;;;;;;;;;;;;;;;4993392;28;19929;-91
2023/07/08 09:54:35;;;;;;;;;;;;;;;;;;4993423;28;19929;-91
2023/07/08 09:59:32;;;;;;;;;;;;;;;;;;5011180;28;19965;-91
2023/07/08 10:01:57;;;;;;;;;;;;;;;;;;4994045;28;19945;-92
2023/07/08 10:04:29;;;;;;;;;;;;;;;;;;5010593;28;19922;-93
2023/07/08 10:12:15;;;;;;;;;;;;;;;;;;5010360;28;20028;-92
2023/07/08 10:14:41;;;;;;;;;;;;;;;;;;4994305;28;19929;-92
2023/07/08 10:17:07;;;;;;;;;;;;;;;;;;4993479;28;19933;-93
2023/07/08 10:19:49;;;;;;;;;;;;;;;;;;4993159;28;19929;-92
2023/07/08 10:22:15;;;;;;;;;;;;;;;;;;4994877;28;19921;-94
2023/07/08 10:24:41;;;;;;;;;;;;;;;;;;4992369;28;19969;-94
2023/07/08 10:27:07;;;;;;;;;;;;;;;;;;4996361;28;19932;-92
2023/07/08 10:29:34;;;;;;;;;;;;;;;;;;4994830;28;19922;-92
2023/07/08 10:32:02;;;;;;;;;;;;;;;;;;4996014;28;19928;-94
2023/07/08 10:34:28;;;;;;;;;;;;;;;;;;5007474;28;19926;-94
2023/07/08 10:37:09;;;;;;;;;;;;;;;;;;4995706;28;19926;-95
2023/07/08 10:39:34;;;;;;;;;;;;;;;;;;5009764;28;20024;-90
2023/07/08 10:42:05;;;;;;;;;;;;;;;;;;4994214;28;19906;-92
2023/07/08 10:44:31;;;;;;;;;;;;;;;;;;4991753;28;19921;-90
2023/07/08 10:46:57;;;;;;;;;;;;;;;;;;5005711;28;19933;-91
2023/07/08 10:49:23;;;;;;;;;;;;;;;;;;4988986;28;19932;-92
2023/07/08 10:51:49;;;;;;;;;;;;;;;;;;5008444;28;19964;-93
2023/07/08 10:54:14;;;;;;;;;;;;;;;;;;4991135;28;19925;-93
2023/07/08 10:56:41;;;;;;;;;;;;;;;;;;5007493;28;20122;-94
2023/07/08 11:01:47;;;;;;;;;;;;;;;;;;5008602;28;20296;-94
2023/07/08 11:04:13;;;;;;;;;;;;;;;;;;5006068;28;19926;-93
2023/07/08 11:06:47;;;;;;;;;;;;;;;;;;4995686;28;19968;-93
2023/07/08 11:09:16;;;;;;;;;;;;;;;;;;4993598;28;19921;-95
2023/07/08 11:14:15;;;;;;;;;;;;;;;;;;5008196;28;19925;-89
2023/07/08 11:16:41;;;;;;;;;;;;;;;;;;4991179;28;19941;-89
2023/07/08 11:19:14;;;;;;;;;;;;;;;;;;5008473;28;20016;-94
2023/07/08 11:21:51;;;;;;;;;;;;;;;;;;4991068;28;20340;-94
2023/07/08 11:24:17;;;;;;;;;;;;;;;;;;4992861;28;19930;-95
2023/07/08 11:26:46;;;;;;;;;;;;;;;;;;4997923;28;19934;-94
2023/07/08 11:29:12;;;;;;;;;;;;;;;;;;4996489;28;19965;-95
2023/07/08 11:31:41;;;;;;;;;;;;;;;;;;5011680;28;19964;-94
2023/07/08 11:34:07;;;;;;;;;;;;;;;;;;4995323;28;20071;-92
2023/07/08 11:36:33;;;;;;;;;;;;;;;;;;4997008;28;19905;-93
2023/07/08 11:39:00;;;;;;;;;;;;;;;;;;5001907;28;19925;-93
2023/07/08 11:41:28;;;;;;;;;;;;;;;;;;5010251;28;19932;-91
2023/07/08 11:43:55;;;;;;;;;;;;;;;;;;4992195;28;19956;-94
2023/07/08 11:46:25;;;;;;;;;;;;;;;;;;5009035;28;19965;-94
2023/07/08 11:48:53;;;;;;;;;;;;;;;;;;4995895;28;20473;-93
2023/07/08 11:51:19;;;;;;;;;;;;;;;;;;4991537;28;19930;-94
2023/07/08 11:53:45;;;;;;;;;;;;;;;;;;5009950;28;20020;-95
2023/07/08 11:56:11;;;;;;;;;;;;;;;;;;5013987;28;19925;-94
2023/07/08 11:58:37;;;;;;;;;;;;;;;;;;4993174;28;19932;-93
2023/07/08 12:01:03;;;;;;;;;;;;;;;;;;5008962;28;19926;-96
2023/07/08 12:03:29;;;;;;;;;;;;;;;;;;4992461;28;19926;-90
2023/07/08 12:05:55;;;;;;;;;;;;;;;;;;4991555;28;19949;-94
2023/07/08 12:08:29;;;;;;;;;;;;;;;;;;4992832;28;20422;-96
2023/07/08 12:10:55;;;;;;;;;;;;;;;;;;4995913;28;19914;-95
2023/07/08 12:13:30;;;;;;;;;;;;;;;;;;4990170;28;19932;-94
2023/07/08 12:15:55;;;;;;;;;;;;;;;;;;4994859;28;19953;-92
2023/07/08 12:18:21;;;;;;;;;;;;;;;;;;4996609;28;20340;-91
2023/07/08 12:20:47;;;;;;;;;;;;;;;;;;4994073;28;19986;-96
2023/07/08 12:23:13;;;;;;;;;;;;;;;;;;4994443;28;20840;-95
2023/07/08 12:25:39;;;;;;;;;;;;;;;;;;5011082;28;19921;-95
2023/07/08 12:28:05;;;;;;;;;;;;;;;;;;4997216;28;19936;-90
2023/07/08 12:30:31;;;;;;;;;;;;;;;;;;5012044;28;19929;-94
2023/07/08 12:33:00;;;;;;;;;;;;;;;;;;5010281;28;19922;-96
2023/07/08 12:35:26;;;;;;;;;;;;;;;;;;5010461;28;19925;-93
2023/07/08 12:37:52;;;;;;;;;;;;;;;;;;4994435;28;19929;-92
2023/07/08 12:40:18;;;;;;;;;;;;;;;;;;5011754;28;19905;-96
2023/07/08 12:42:47;;;;;;;;;;;;;;;;;;5013166;28;19965;-96
2023/07/08 12:45:20;;;;;;;;;;;;;;;;;;4996086;28;19925;-94
2023/07/08 12:47:46;;;;;;;;;;;;;;;;;;4995364;28;20485;-90
2023/07/08 12:50:11;;;;;;;;;;;;;;;;;;4993581;28;20023;-94
2023/07/08 12:52:37;;;;;;;;;;;;;;;;;;4995741;28;19926;-96
2023/07/08 12:55:04;;;;;;;;;;;;;;;;;;4995721;28;19952;-93
2023/07/08 12:57:29;;;;;;;;;;;;;;;;;;4995157;28;19926;-93
2023/07/08 12:59:55;;;;;;;;;;;;;;;;;;4994150;28;19936;-93
2023/07/08 13:02:21;;;;;;;;;;;;;;;;;;4994995;28;19930;-96
2023/07/08 13:04:47;;;;;;;;;;;;;;;;;;4995387;28;19960;-96
2023/07/08 13:07:13;;;;;;;;;;;;;;;;;;4995066;28;19925;-96
2023/07/08 13:09:39;;;;;;;;;;;;;;;;;;4993846;28;19925;-91
2023/07/08 13:12:05;;;;;;;;;;;;;;;;;;4994687;28;20437;-96
2023/07/08 13:14:31;;;;;;;;;;;;;;;;;;4995415;28;19921;-96
2023/07/08 13:16:57;;;;;;;;;;;;;;;;;;4995722;28;20012;-92
2023/07/08 13:19:23;;;;;;;;;;;;;;;;;;4994189;28;19933;-95
2023/07/08 13:21:49;;;;;;;;;;;;;;;;;;4990614;28;19905;-93
2023/07/08 13:24:19;;;;;;;;;;;;;;;;;;4993477;28;19926;-94
2023/07/08 13:26:45;;;;;;;;;;;;;;;;;;4992844;28;19925;-93
2023/07/08 13:29:11;;;;;;;;;;;;;;;;;;4991797;28;19980;-92
2023/07/08 13:31:37;;;;;;;;;;;;;;;;;;5005499;28;19926;-95
2023/07/08 13:34:04;;;;;;;;;;;;;;;;;;4994272;28;19933;-92
2023/07/08 13:36:30;;;;;;;;;;;;;;;;;;5009833;28;19927;-93
2023/07/08 13:38:56;;;;;;;;;;;;;;;;;;5011617;28;20003;-92
2023/07/08 13:41:22;;;;;;;;;;;;;;;;;;5008862;28;19981;-95
2023/07/08 13:43:48;;;;;;;;;;;;;;;;;;4993175;28;20059;-94
2023/07/08 13:46:14;;;;;;;;;;;;;;;;;;4992090;28;19976;-94
2023/07/08 13:48:40;;;;;;;;;;;;;;;;;;4992293;28;20306;-94
2023/07/08 13:51:06;;;;;;;;;;;;;;;;;;4989631;28;20024;-91
2023/07/08 13:53:31;;;;;;;;;;;;;;;;;;4993687;28;19929;-93
2023/07/08 13:56:14;;;;;;;;;;;;;;;;;;5012293;28;19960;-94
2023/07/08 13:58:40;;;;;;;;;;;;;;;;;;5007329;28;19960;-91
2023/07/08 14:01:06;;;;;;;;;;;;;;;;;;5008432;28;19936;-93
2023/07/08 14:03:32;;;;;;;;;;;;;;;;;;4998064;28;19948;-95
2023/07/08 14:08:27;;;;;;;;;;;;;;;;;;5010395;28;19929;-95
2023/07/08 14:10:53;;;;;;;;;;;;;;;;;;4993764;28;19936;-91
2023/07/08 14:13:26;;;;;;;;;;;;;;;;;;4993282;28;19984;-90
2023/07/08 14:15:52;;;;;;;;;;;;;;;;;;5008458;28;19926;-93
2023/07/08 14:18:18;;;;;;;;;;;;;;;;;;4991252;28;19916;-93
2023/07/08 14:20:44;;;;;;;;;;;;;;;;;;4995139;28;19933;-94
2023/07/08 14:23:10;;;;;;;;;;;;;;;;;;5010289;28;19929;-95
2023/07/08 14:25:38;;;;;;;;;;;;;;;;;;5027581;28;19926;-92
2023/07/08 14:28:05;;;;;;;;;;;;;;;;;;4992845;28;19948;-95
2023/07/08 14:30:31;;;;;;;;;;;;;;;;;;5009908;28;19921;-94
2023/07/08 14:32:58;;;;;;;;;;;;;;;;;;5008945;28;19933;-93
2023/07/08 14:35:24;;;;;;;;;;;;;;;;;;5010802;28;19921;-93
2023/07/08 14:37:50;;;;;;;;;;;;;;;;;;5008867;28;20027;-91
2023/07/08 14:40:16;;;;;;;;;;;;;;;;;;4993354;28;19929;-93
2023/07/08 14:42:42;;;;;;;;;;;;;;;;;;5007457;28;19925;-94
2023/07/08 14:45:07;;;;;;;;;;;;;;;;;;4999819;28;19945;-95
2023/07/08 14:47:35;;;;;;;;;;;;;;;;;;4992384;28;19944;-95
2023/07/08 14:50:01;;;;;;;;;;;;;;;;;;5004395;28;19929;-91
2023/07/08 14:52:27;;;;;;;;;;;;;;;;;;4992639;28;19925;-91
2023/07/08 14:54:53;;;;;;;;;;;;;;;;;;5012973;28;19925;-95
2023/07/08 14:57:21;;;;;;;;;;;;;;;;;;4991556;28;19933;-95
2023/07/08 14:59:47;;;;;;;;;;;;;;;;;;5010526;28;19925;-92
2023/07/08 15:02:13;;;;;;;;;;;;;;;;;;5008715;28;20317;-89
2023/07/08 15:04:39;;;;;;;;;;;;;;;;;;5011636;28;19925;-93
2023/07/08 15:07:06;;;;;;;;;;;;;;;;;;4994711;28;19960;-90
2023/07/08 15:09:32;;;;;;;;;;;;;;;;;;4994765;28;20323;-94
2023/07/08 15:11:59;;;;;;;;;;;;;;;;;;4993262;28;19922;-92
2023/07/08 15:14:26;;;;;;;;;;;;;;;;;;4990349;28;19913;-92
2023/07/08 15:16:51;;;;;;;;;;;;;;;;;;4993480;28;19926;-93
2023/07/08 15:19:18;;;;;;;;;;;;;;;;;;4996092;28;19940;-92
2023/07/08 15:21:44;;;;;;;;;;;;;;;;;;5010297;28;19925;-91
2023/07/08 15:24:13;;;;;;;;;;;;;;;;;;4994298;28;19976;-93
2023/07/08 15:26:39;;;;;;;;;;;;;;;;;;4992348;28;19933;-94
2023/07/08 15:29:05;;;;;;;;;;;;;;;;;;5011081;28;19936;-93
2023/07/08 15:31:31;;;;;;;;;;;;;;;;;;5011493;28;19932;-88
2023/07/08 15:33:57;;;;;;;;;;;;;;;;;;5007608;28;20298;-90
2023/07/08 15:36:24;;;;;;;;;;;;;;;;;;5009405;28;19949;-90
2023/07/08 15:38:51;;;;;;;;;;;;;;;;;;5001500;28;19932;-94
2023/07/08 15:41:20;;;;;;;;;;;;;;;;;;5011797;28;19925;-95
2023/07/08 15:43:46;;;;;;;;;;;;;;;;;;4999570;28;20260;-94
2023/07/08 15:46:13;;;;;;;;;;;;;;;;;;5009729;28;19929;-93
2023/07/08 15:48:39;;;;;;;;;;;;;;;;;;4996812;28;19933;-95
2023/07/08 15:51:05;;;;;;;;;;;;;;;;;;4996014;28;19929;-92
2023/07/08 15:53:31;;;;;;;;;;;;;;;;;;4996172;28;20016;-93
2023/07/08 15:55:57;;;;;;;;;;;;;;;;;;4990429;28;19905;-93
2023/07/08 15:58:23;;;;;;;;;;;;;;;;;;5012046;28;19925;-91
2023/07/08 16:00:49;;;;;;;;;;;;;;;;;;5007837;28;19929;-91
2023/07/08 16:03:24;;;;;;;;;;;;;;;;;;5007896;28;19933;-93
2023/07/08 16:05:50;;;;;;;;;;;;;;;;;;5011396;28;21118;-92
2023/07/08 16:08:18;;;;;;;;;;;;;;;;;;4995453;28;19968;-91
2023/07/08 16:10:44;;;;;;;;;;;;;;;;;;5008591;28;20164;-94
2023/07/08 16:13:10;;;;;;;;;;;;;;;;;;5013539;28;19929;-93
2023/07/08 16:15:42;;;;;;;;;;;;;;;;;;5009801;28;19926;-92
2023/07/08 16:18:08;;;;;;;;;;;;;;;;;;4988158;28;19926;-91
2023/07/08 16:20:34;;;;;;;;;;;;;;;;;;4995521;28;19944;-92
2023/07/08 16:23:00;;;;;;;;;;;;;;;;;;4992185;28;19932;-93
2023/07/08 16:25:26;;;;;;;;;;;;;;;;;;4987841;28;19954;-91
2023/07/08 16:27:52;;;;;;;;;;;;;;;;;;4991336;28;20399;-91
2023/07/08 16:30:18;;;;;;;;;;;;;;;;;;5008107;28;20494;-92
2023/07/08 16:32:44;;;;;;;;;;;;;;;;;;5007334;28;20073;-91
2023/07/08 16:37:40;;;;;;;;;;;;;;;;;;5006041;28;19921;-91
2023/07/08 16:40:08;;;;;;;;;;;;;;;;;;4991864;28;19927;-91
2023/07/08 16:42:35;;;;;;;;;;;;;;;;;;5008378;28;19932;-92
2023/07/08 16:45:01;;;;;;;;;;;;;;;;;;4996691;28;19921;-89
2023/07/08 16:47:27;;;;;;;;;;;;;;;;;;5004801;28;19925;-90
2023/07/08 16:49:53;;;;;;;;;;;;;;;;;;4997192;28;19936;-91
2023/07/08 16:52:19;;;;;;;;;;;;;;;;;;4984518;28;19928;-92
2023/07/08 16:54:45;;;;;;;;;;;;;;;;;;4990728;28;19929;-90
2023/07/08 17:00:00;;;;;;;;;;;;;;;;;;5003511;28;19921;-89
2023/07/08 17:02:26;;;;;;;;;;;;;;;;;;4988375;28;19929;-87
2023/07/08 17:04:52;;;;;;;;;;;;;;;;;;4986373;28;19929;-92
2023/07/08 17:07:18;;;;;;;;;;;;;;;;;;4989092;28;19981;-90